createdAt,value
2023-04-24T00:02:12.235Z,11.56
2023-04-24T00:07:14.211Z,11.44
2023-04-24T00:12:16.001Z,11.47
2023-04-24T00:17:20.894Z,11.50
2023-04-24T00:22:23.136Z,11.45
2023-04-24T00:27:24.792Z,11.57
2023-04-24T00:32:26.585Z,11.70
2023-04-24T00:37:28.355Z,11.63
2023-04-24T00:42:30.151Z,11.72
2023-04-24T00:47:33.716Z,11.62
2023-04-24T00:52:35.604Z,11.76
2023-04-24T00:57:38.578Z,11.66
2023-04-24T01:02:45.071Z,11.59
2023-04-24T01:07:50.040Z,11.59
2023-04-24T01:12:52.785Z,11.49
2023-04-24T01:17:54.569Z,11.45
2023-04-24T01:22:57.581Z,11.60
2023-04-24T01:27:59.755Z,11.73
2023-04-24T01:33:01.921Z,11.43
2023-04-24T01:38:03.849Z,11.73
2023-04-24T01:43:05.640Z,11.58
2023-04-24T01:48:07.491Z,11.69
2023-04-24T01:53:09.681Z,11.57
2023-04-24T01:58:11.664Z,11.36
2023-04-24T02:03:13.501Z,11.36
2023-04-24T02:08:15.341Z,11.35
2023-04-24T02:13:17.065Z,11.34
2023-04-24T02:18:19.262Z,11.29
2023-04-24T02:23:21.333Z,11.36
2023-04-24T02:28:23.089Z,11.37
2023-04-24T02:33:25.942Z,11.61
2023-04-24T02:38:27.627Z,11.55
2023-04-24T02:43:29.397Z,11.41
2023-04-24T02:48:31.142Z,11.49
2023-04-24T02:53:32.996Z,11.35
2023-04-24T02:58:34.917Z,11.30
2023-04-24T03:03:37.506Z,11.15
2023-04-24T03:08:39.405Z,11.18
2023-04-24T03:13:41.104Z,11.09
2023-04-24T03:18:42.924Z,11.24
2023-04-24T03:23:45.752Z,11.24
2023-04-24T03:28:47.519Z,11.56
2023-04-24T03:33:49.370Z,11.39
2023-04-24T03:38:51.664Z,11.48
2023-04-24T03:44:03.768Z,11.42
2023-04-24T03:49:06.850Z,11.58
2023-04-24T03:54:12.342Z,11.86
2023-04-24T03:59:15.519Z,11.91
2023-04-24T04:04:21.291Z,12.02
2023-04-24T04:09:23.192Z,12.17
2023-04-24T04:14:25.009Z,12.06
2023-04-24T04:19:27.578Z,11.98
2023-04-24T04:24:29.739Z,12.27
2023-04-24T04:29:33.850Z,12.39
2023-04-24T04:34:38.765Z,12.16
2023-04-24T04:39:42.791Z,12.20
2023-04-24T04:44:58.494Z,12.06
2023-04-24T04:50:11.526Z,12.07
2023-04-24T04:55:14.424Z,12.03
2023-04-24T05:00:38.764Z,12.09
2023-04-24T05:06:03.497Z,12.25
2023-04-24T05:11:08.954Z,12.53
2023-04-24T05:16:12.102Z,12.65
2023-04-24T05:21:15.002Z,12.68
2023-04-24T05:26:20.327Z,12.88
2023-04-24T05:31:22.293Z,12.99
2023-04-24T05:36:25.518Z,12.93
2023-04-24T05:41:28.408Z,12.97
2023-04-24T05:46:30.259Z,13.20
2023-04-24T05:51:32.744Z,13.32
2023-04-24T05:56:34.905Z,13.54
2023-04-24T06:01:39.402Z,13.77
2023-04-24T06:06:46.998Z,13.58
2023-04-24T06:11:53.713Z,13.79
2023-04-24T06:16:58.707Z,13.87
2023-04-24T06:22:13.732Z,13.98
2023-04-24T06:27:16.670Z,14.39
2023-04-24T06:32:18.399Z,14.32
2023-04-24T06:37:21.578Z,14.35
2023-04-24T06:42:24.780Z,14.32
2023-04-24T06:47:26.600Z,14.28
2023-04-24T06:52:28.405Z,14.30
2023-04-24T06:57:30.751Z,14.46
2023-04-24T07:02:32.696Z,14.72
2023-04-24T07:07:35.223Z,14.93
2023-04-24T07:12:37.043Z,14.99
2023-04-24T07:17:39.593Z,14.75
2023-04-24T07:22:41.688Z,14.83
2023-04-24T07:27:43.445Z,14.67
2023-04-24T07:32:45.420Z,14.83
2023-04-24T07:37:47.483Z,14.94
2023-04-24T07:42:52.193Z,15.15
2023-04-24T07:47:53.927Z,15.23
2023-04-24T07:52:55.838Z,15.25
2023-04-24T07:57:57.549Z,15.17
2023-04-24T08:02:59.455Z,15.42
2023-04-24T08:08:01.398Z,15.40
2023-04-24T08:13:03.695Z,15.68
2023-04-24T08:18:05.778Z,15.96
2023-04-24T08:23:07.490Z,16.08
2023-04-24T08:28:10.260Z,15.88
2023-04-24T08:33:11.882Z,16.03
2023-04-24T08:38:13.516Z,15.88
2023-04-24T08:43:16.709Z,15.84
2023-04-24T08:48:29.632Z,15.89
2023-04-24T08:53:34.082Z,16.26
2023-04-24T08:58:36.665Z,16.10
2023-04-24T09:03:39.669Z,16.22
2023-04-24T09:08:42.312Z,16.51
2023-04-24T09:13:44.528Z,17.06
2023-04-24T09:18:46.945Z,16.66
2023-04-24T09:23:58.977Z,16.20
2023-04-24T09:29:00.994Z,16.16
2023-04-24T09:34:08.239Z,16.37
2023-04-24T09:39:16.787Z,16.11
2023-04-24T09:44:21.893Z,16.02
2023-04-24T09:49:28.346Z,16.06
2023-04-24T09:54:30.826Z,16.31
2023-04-24T09:59:33.038Z,16.52
2023-04-24T10:05:03.226Z,16.37
2023-04-24T10:10:21.968Z,16.59
2023-04-24T10:15:39.740Z,16.46
2023-04-24T10:20:48.933Z,16.64
2023-04-24T10:25:55.727Z,16.86
2023-04-24T10:31:02.257Z,17.57
2023-04-24T10:36:25.873Z,17.84
2023-04-24T10:41:32.579Z,17.61
2023-04-24T10:46:36.444Z,17.13
2023-04-24T10:51:56.882Z,17.38
2023-04-24T10:57:33.683Z,16.91
2023-04-24T11:02:41.295Z,16.90
2023-04-24T11:08:14.227Z,16.63
2023-04-24T11:13:22.454Z,16.41
2023-04-24T11:18:24.082Z,16.27
2023-04-24T11:23:25.715Z,16.31
2023-04-24T11:28:29.461Z,16.53
2023-04-24T11:33:32.812Z,16.83
2023-04-24T11:38:34.510Z,17.34
2023-04-24T11:43:36.321Z,17.79
2023-04-24T11:48:41.028Z,17.54
2023-04-24T11:53:43.563Z,17.36
2023-04-24T11:58:46.988Z,16.95
2023-04-24T12:03:50.297Z,16.40
2023-04-24T12:09:01.676Z,16.17
2023-04-24T12:14:13.383Z,16.00
2023-04-24T12:19:21.259Z,15.90
2023-04-24T12:24:22.863Z,15.83
2023-04-24T12:29:25.621Z,16.04
2023-04-24T12:34:27.251Z,16.85
2023-04-24T12:39:28.969Z,16.96
2023-04-24T12:44:32.684Z,17.22
2023-04-24T12:49:34.301Z,16.98
2023-04-24T12:54:36.116Z,16.77
2023-04-24T12:59:37.692Z,16.83
2023-04-24T13:04:39.594Z,17.24
2023-04-24T13:09:42.106Z,17.50
2023-04-24T13:14:43.735Z,17.53
2023-04-24T13:19:46.364Z,18.01
2023-04-24T13:24:51.924Z,17.37
2023-04-24T13:29:53.658Z,17.23
2023-04-24T13:34:55.367Z,17.07
2023-04-24T13:39:56.924Z,17.07
2023-04-24T13:44:58.574Z,16.52
2023-04-24T13:50:00.329Z,16.12
2023-04-24T13:55:02.277Z,16.49
2023-04-24T14:00:05.144Z,16.71
2023-04-24T14:05:09.103Z,16.83
2023-04-24T14:10:11.361Z,16.62
2023-04-24T14:15:14.412Z,16.74
2023-04-24T14:20:16.236Z,16.70
2023-04-24T14:25:17.861Z,16.70
2023-04-24T14:30:20.024Z,17.03
2023-04-24T14:35:21.843Z,16.73
2023-04-24T14:40:48.599Z,16.70
2023-04-24T14:45:45.176Z,16.65
2023-04-24T14:50:46.854Z,16.37
2023-04-24T14:55:48.555Z,16.35
2023-04-24T15:00:55.453Z,16.27
2023-04-24T15:05:57.638Z,16.33
2023-04-24T15:10:59.502Z,16.15
2023-04-24T15:16:01.411Z,16.26
2023-04-24T15:21:03.602Z,16.23
2023-04-24T15:26:05.356Z,15.75
2023-04-24T15:31:06.978Z,15.76
2023-04-24T15:36:09.105Z,15.51
2023-04-24T15:41:11.897Z,15.66
2023-04-24T15:46:13.746Z,15.75
2023-04-24T15:51:15.466Z,15.47
2023-04-24T15:56:17.079Z,15.54
2023-04-24T16:01:19.006Z,15.37
2023-04-24T16:06:20.981Z,15.23
2023-04-24T16:11:22.764Z,15.35
2023-04-24T16:16:24.701Z,15.20
2023-04-24T16:21:27.082Z,15.33
2023-04-24T16:26:28.800Z,15.07
2023-04-24T16:31:30.708Z,15.02
2023-04-24T16:36:32.602Z,14.85
2023-04-24T16:41:34.221Z,14.46
2023-04-24T16:46:35.904Z,14.36
2023-04-24T16:51:37.703Z,14.40
2023-04-24T16:56:39.833Z,14.33
2023-04-24T17:01:41.610Z,14.27
2023-04-24T17:06:43.296Z,14.26
2023-04-24T17:11:44.985Z,14.13
2023-04-24T17:16:46.894Z,14.23
2023-04-24T17:21:48.503Z,13.98
2023-04-24T17:26:51.139Z,13.69
2023-04-24T17:31:53.716Z,13.67
2023-04-24T17:36:55.530Z,13.35
2023-04-24T17:41:57.142Z,13.31
2023-04-24T17:46:59.080Z,13.26
2023-04-24T17:52:00.812Z,13.00
2023-04-24T17:57:02.907Z,12.93
2023-04-24T18:02:04.674Z,13.01
2023-04-24T18:07:06.296Z,12.86
2023-04-24T18:12:08.211Z,12.63
2023-04-24T18:17:10.020Z,12.51
2023-04-24T18:22:11.671Z,12.14
2023-04-24T18:27:13.386Z,12.02
2023-04-24T18:32:15.217Z,11.95
2023-04-24T18:37:16.901Z,11.78
2023-04-24T18:42:18.857Z,11.82
2023-04-24T18:47:20.642Z,11.59
2023-04-24T18:52:23.537Z,11.44
2023-04-24T18:57:25.252Z,11.26
2023-04-24T19:02:26.938Z,11.48
2023-04-24T19:07:29.324Z,11.39
2023-04-24T19:12:31.060Z,11.36
2023-04-24T19:17:32.717Z,11.34
2023-04-24T19:22:34.700Z,11.40
2023-04-24T19:27:36.359Z,11.53
2023-04-24T19:32:38.099Z,11.44
2023-04-24T19:37:39.825Z,11.14
2023-04-24T19:42:44.665Z,11.24
2023-04-24T19:47:46.938Z,10.78
2023-04-24T19:52:48.641Z,10.94
2023-04-24T19:57:50.325Z,10.78
2023-04-24T20:02:52.141Z,10.86
2023-04-24T20:07:53.806Z,10.88
2023-04-24T20:12:55.667Z,10.83
2023-04-24T20:17:57.353Z,10.96
2023-04-24T20:22:59.032Z,10.75
2023-04-24T20:28:00.728Z,10.74
2023-04-24T20:33:02.428Z,10.89
2023-04-24T20:38:04.220Z,10.68
2023-04-24T20:43:07.570Z,10.58
2023-04-24T20:48:09.904Z,10.53
2023-04-24T20:53:11.624Z,10.38
2023-04-24T20:58:13.283Z,10.47
2023-04-24T21:03:15.720Z,10.32
2023-04-24T21:08:17.672Z,10.14
2023-04-24T21:13:19.378Z,10.10
2023-04-24T21:18:21.179Z,10.25
2023-04-24T21:23:22.832Z,10.09
2023-04-24T21:28:25.430Z,10.16
2023-04-24T21:33:27.086Z,10.30
2023-04-24T21:38:29.091Z,10.43
2023-04-24T21:43:43.534Z,10.19
2023-04-24T21:48:46.594Z,10.05
2023-04-24T21:53:48.872Z,10.20
2023-04-24T21:58:50.795Z,10.19
2023-04-24T22:03:52.765Z,10.00
2023-04-24T22:08:54.898Z,9.95
2023-04-24T22:13:56.998Z,9.79
2023-04-24T22:18:58.614Z,9.82
2023-04-24T22:24:00.293Z,9.68
2023-04-24T22:29:01.877Z,9.73
2023-04-24T22:34:03.850Z,9.65
2023-04-24T22:39:05.622Z,9.47
2023-04-24T22:44:07.498Z,9.32
2023-04-24T22:49:10.184Z,9.24
2023-04-24T22:54:11.840Z,9.26
2023-04-24T22:59:13.477Z,9.38
2023-04-24T23:04:15.425Z,9.16
2023-04-24T23:09:17.188Z,8.97
2023-04-24T23:14:18.835Z,8.88
2023-04-24T23:19:20.489Z,8.89
2023-04-24T23:24:22.393Z,8.92
2023-04-24T23:29:26.097Z,8.82
2023-04-24T23:34:27.713Z,8.81
2023-04-24T23:39:29.322Z,8.93
2023-04-24T23:44:31.089Z,9.03
2023-04-24T23:49:32.685Z,9.06
2023-04-24T23:54:34.970Z,9.06
2023-04-24T23:59:36.622Z,9.10
